Rockwood, Oregon
Current Conditions -  °F | °C
As of 7:53 AM on Thursday 30 Oct 2014 (Local Time) from KTTD Reporting Station
Light Rain Light Rain  
Wind Chill: 57°   Ceiling: 9000
Heat Index: 57°   Visibility: 10mi
Dew Point: 53°   Wind: 20mph
Humidity: 87%   Direction: 90°E
Pressure: 29.89"   Gusts: NA
Location:  45.5135°N, 122.496°W
Report Text: KTTD 301453Z 09017KT 10SM -RA SCT055 OVC090 14/12 A2989 RMK AO2 RAB1355 SLP123 P0002 60002 T01390117 56003
Loading
Personal Weather Stations






























Interactive Weather Map
Tropical Storm Tracking
New forecast layout! Learn more

10-Day Weather Forecast

Advertisements
Track Severe Weather on mobile